CW2001 Weather Reports


Display with metric or nautical units.
time (UTC)temp
F
wind
direction
speed
MPH
gust
MPH
rain 1hr
in
rain 24hr
in
rain mn
in
humidity
%
barometer
mb
20210917161555 75 51 2.0 7.0 0.00 0.00 0.00 65 1016.3
20210917161055 75 64 3.0 10.0 0.00 0.00 0.00 66 1015.7
20210917160555 74 84 4.0 8.0 0.00 0.00 0.00 65 1015.8
20210917160055 74 94 3.0 9.0 0.00 0.00 0.00 65 1015.9
20210917155554 74 47 3.0 9.0 0.00 0.00 0.00 67 1016.0
20210917155057 74 46 3.0 12.0 0.00 0.00 0.00 69 1015.9
20210917154556 73 61 3.0 12.0 0.00 0.00 0.00 69 1015.9
20210917154056 73 85 5.0 9.0 0.00 0.00 0.00 69 1015.8
20210917153555 73 73 2.0 10.0 0.00 0.00 0.00 69 1016.2
20210917153055 73 27 4.0 8.0 0.00 0.00 0.00 71 1016.3
20210917152554 72 59 4.0 12.0 0.00 0.00 0.00 74 1016.4
20210917152056 71 58 3.0 8.0 0.00 0.00 0.00 77 1016.3
20210917151555 70 47 2.0 7.0 0.00 0.00 0.00 78 1016.5
20210917151056 70 49 3.0 5.0 0.00 0.00 0.00 79 1016.8
20210917150554 69 53 3.0 6.0 0.00 0.00 0.00 79 1016.7
20210917150054 69 27 3.0 8.0 0.00 0.00 0.00 82 1017.0
20210917145555 68 61 1.0 3.0 0.00 0.00 0.00 83 1017.4
20210917145055 68 72 1.0 5.0 0.00 0.00 0.00 83 1017.3
20210917144555 67 63 2.0 5.0 0.00 0.00 0.00 83 1017.2
20210917144055 67 58 2.0 5.0 0.00 0.00 0.00 83 1017.0
20210917143556 67 62 3.0 7.0 0.00 0.00 0.00 83 1017.1
20210917143055 67 330 6.0 14.0 0.00 0.00 0.00 83 1017.3
20210917142130 67 6 6.0 14.0 0.00 0.00 0.00 83 1017.4
20210917141631 67 343 5.0 10.0 0.00 0.00 0.00 83 1017.6
20210917141130 67 351 9.0 14.0 0.00 0.00 0.00 83 1017.6
20210917140632 67 317 10.0 20.0 0.00 0.00 0.00 82 1017.5
20210917140131 68 328 12.0 17.0 0.00 0.00 0.00 82 1017.5
20210917135631 68 318 12.0 25.0 0.00 0.00 0.00 83 1017.6
20210917135133 69 310 14.0 21.0 0.00 0.00 0.00 84 1017.4
20210917134630 69 327 9.0 17.0 0.00 0.00 0.00 85 1017.2
20210917134131 68 332 6.0 17.0 0.00 0.00 0.00 85 1016.9
20210917133631 68 312 9.0 18.0 0.00 0.00 0.00 85 1017.1
20210917133132 68 315 9.0 21.0 0.00 0.00 0.00 85 1016.9
20210917132632 68 316 10.0 20.0 0.00 0.00 0.00 86 1016.9
20210917132132 68 287 2.0 3.0 0.00 0.00 0.00 88 1015.8
20210917131630 68 290 1.0 2.0 0.00 0.00 0.00 87 1015.4
20210917131131 68 135 0.0 2.0 0.00 0.00 0.00 87 1015.3
20210917130631 67 135 1.0 2.0 0.00 0.00 0.00 88 1015.1
20210917130131 67 163 0.0 0.0 0.00 0.00 0.00 88 1015.0
20210917125631 67 162 0.0 0.0 0.00 0.00 0.00 88 1015.0
20210917125131 67 162 1.0 2.0 0.00 0.00 0.00 88 1014.9
20210917124631 66 165 0.0 0.0 0.00 0.00 0.00 87 1014.9
20210917124131 66 165 0.0 0.0 0.00 0.00 0.00 87 1014.8
20210917123631 66 165 0.0 0.0 0.00 0.00 0.00 87 1014.7
20210917123130 66 165 0.0 1.0 0.00 0.00 0.00 87 1014.6
20210917122631 66 165 0.0 0.0 0.00 0.00 0.00 86 1014.6
20210917122131 67 165 0.0 0.0 0.00 0.00 0.00 86 1014.5
20210917121631 67 165 0.0 0.0 0.00 0.00 0.00 86 1014.5
20210917121130 67 165 0.0 0.0 0.00 0.00 0.00 86 1014.5
20210917120630 67 165 0.0 1.0 0.00 0.00 0.00 86 1014.6
20210917120130 67 165 0.0 0.0 0.00 0.00 0.00 85 1014.6
20210917115631 67 165 0.0 2.0 0.00 0.00 0.00 85 1014.7
20210917115131 67 127 0.0 1.0 0.00 0.00 0.00 85 1014.7
20210917114631 67 126 0.0 0.0 0.00 0.00 0.00 85 1014.8
20210917114131 67 126 0.0 0.0 0.00 0.00 0.00 84 1014.8
20210917113631 67 126 0.0 0.0 0.00 0.00 0.00 84 1014.7
20210917113131 67 126 0.0 0.0 0.00 0.00 0.00 84 1014.7
20210917112631 67 126 0.0 0.0 0.00 0.00 0.00 84 1014.6
20210917112130 67 126 0.0 0.0 0.00 0.00 0.00 84 1014.5
20210917111631 67 126 0.0 0.0 0.00 0.00 0.00 84 1014.4
20210917111130 67 126 0.0 1.0 0.00 0.00 0.00 84 1014.3
20210917110635 67 129 1.0 2.0 0.00 0.00 0.00 83 1014.3
20210917110131 67 115 2.0 3.0 0.00 0.00 0.00 83 1014.1
20210917105630 67 106 1.0 3.0 0.00 0.00 0.00 83 1014.1
20210917105131 67 94 1.0 2.0 0.00 0.00 0.00 82 1014.1
20210917104630 68 99 1.0 3.0 0.00 0.00 0.00 82 1014.1
20210917104130 68 100 2.0 2.0 0.00 0.00 0.00 82 1014.2
20210917103630 68 94 0.0 1.0 0.00 0.00 0.00 82 1014.2
20210917103130 68 84 1.0 2.0 0.00 0.00 0.00 82 1014.1
20210917102630 68 350 1.0 2.0 0.00 0.00 0.00 81 1014.3
20210917102130 68 340 1.0 3.0 0.00 0.00 0.00 81 1014.4
20210917101630 68 315 2.0 6.0 0.00 0.00 0.00 81 1014.4
20210917101130 68 309 6.0 8.0 0.00 0.00 0.00 81 1014.5
20210917100631 68 295 4.0 12.0 0.00 0.00 0.00 81 1014.4
20210917100131 68 298 5.0 10.0 0.00 0.00 0.00 81 1014.4
20210917095630 68 283 8.0 17.0 0.00 0.00 0.00 80 1014.2
20210917095130 68 294 3.0 6.0 0.00 0.00 0.00 80 1013.6
20210917094631 68 153 2.0 5.0 0.00 0.00 0.00 80 1013.0
20210917094130 67 158 2.0 3.0 0.00 0.00 0.00 80 1012.8
20210917093630 67 151 2.0 6.0 0.00 0.00 0.00 80 1012.8
20210917093130 67 148 1.0 5.0 0.00 0.00 0.00 80 1012.8
20210917092631 67 201 0.0 1.0 0.00 0.00 0.00 80 1013.0
20210917092131 67 244 0.0 0.0 0.00 0.00 0.00 80 1013.1
20210917091630 67 244 1.0 2.0 0.00 0.00 0.00 80 1013.1
20210917091132 67 254 1.0 2.0 0.00 0.00 0.00 80 1012.7
20210917090630 67 144 0.0 1.0 0.00 0.00 0.00 79 1012.2
20210917090130 67 158 1.0 2.0 0.00 0.00 0.00 79 1012.2
20210917085631 67 172 0.0 2.0 0.00 0.00 0.00 79 1012.2
20210917085131 67 154 0.0 2.0 0.00 0.00 0.00 79 1012.2
20210917084631 67 145 0.0 0.0 0.00 0.00 0.00 79 1012.3
20210917084130 67 144 1.0 2.0 0.00 0.00 0.00 78 1012.3
20210917083630 67 128 0.0 2.0 0.00 0.00 0.00 77 1012.4
20210917083130 68 124 1.0 2.0 0.00 0.00 0.00 77 1012.3
20210917082631 68 150 1.0 2.0 0.00 0.00 0.00 76 1012.5
20210917082130 68 147 0.0 2.0 0.00 0.00 0.00 76 1012.5
20210917081631 68 163 1.0 2.0 0.00 0.00 0.00 75 1012.4
20210917081131 68 155 0.0 2.0 0.00 0.00 0.00 75 1012.4
20210917080630 69 152 2.0 3.0 0.00 0.00 0.00 74 1012.4
20210917080131 69 151 1.0 3.0 0.00 0.00 0.00 74 1012.5
20210917075630 69 142 1.0 5.0 0.00 0.00 0.00 74 1012.4
20210917075130 69 149 0.0 2.0 0.00 0.00 0.00 74 1012.5
20210917074630 69 150 0.0 2.0 0.00 0.00 0.00 73 1012.5
20210917074131 69 151 0.0 2.0 0.00 0.00 0.00 73 1012.5
20210917073630 69 164 0.0 2.0 0.00 0.00 0.00 73 1012.4
20210917073130 69 145 1.0 3.0 0.00 0.00 0.00 72 1012.2
20210917072630 69 187 1.0 3.0 0.00 0.00 0.00 72 1012.2
20210917072130 69 143 0.0 3.0 0.00 0.00 0.00 72 1012.1
20210917071631 69 155 1.0 3.0 0.00 0.00 0.00 71 1011.9
20210917071131 69 159 1.0 5.0 0.00 0.00 0.00 71 1011.9
20210917070630 70 162 1.0 3.0 0.00 0.00 0.00 70 1011.8
20210917070130 70 146 2.0 6.0 0.00 0.00 0.00 70 1011.7
20210917065631 70 159 1.0 2.0 0.00 0.00 0.00 69 1011.6
20210917065130 70 151 1.0 5.0 0.00 0.00 0.00 69 1011.5
20210917064630 70 161 2.0 5.0 0.00 0.00 0.00 68 1011.6
20210917064130 71 153 1.0 6.0 0.00 0.00 0.00 67 1011.6
20210917063630 71 153 1.0 3.0 0.00 0.00 0.00 67 1011.6
20210917063130 71 164 2.0 5.0 0.00 0.00 0.00 66 1011.5
20210917062630 71 175 2.0 5.0 0.00 0.00 0.00 65 1011.5
20210917062130 71 157 3.0 6.0 0.00 0.00 0.00 65 1011.5
20210917061630 71 173 2.0 8.0 0.00 0.00 0.00 65 1011.5
20210917061130 72 190 3.0 9.0 0.00 0.00 0.00 65 1011.4
20210917060630 72 156 3.0 7.0 0.00 0.00 0.00 64 1011.3
20210917060130 72 160 3.0 7.0 0.00 0.00 0.00 64 1011.3
20210917055630 72 175 3.0 7.0 0.00 0.00 0.00 64 1011.3
20210917055130 72 178 2.0 5.0 0.00 0.00 0.00 63 1011.2
20210917054630 72 179 3.0 6.0 0.00 0.00 0.00 63 1011.2
20210917054131 72 159 2.0 6.0 0.00 0.00 0.00 63 1011.1
20210917053630 72 164 2.0 9.0 0.00 0.00 0.00 63 1010.9
20210917053131 72 160 3.0 6.0 0.00 0.00 0.00 63 1011.0
20210917052631 72 170 3.0 6.0 0.00 0.00 0.00 63 1010.9
20210917052130 72 171 2.0 6.0 0.00 0.00 0.00 62 1011.0
20210917051630 72 163 3.0 7.0 0.00 0.00 0.00 63 1011.0
20210917051130 72 158 3.0 5.0 0.00 0.00 0.00 63 1011.0
20210917050630 73 151 2.0 5.0 0.00 0.00 0.00 62 1011.0
20210917050130 73 155 2.0 5.0 0.00 0.00 0.00 62 1011.1
20210917045630 73 167 2.0 6.0 0.00 0.00 0.00 63 1011.0
20210917045130 73 161 2.0 5.0 0.00 0.00 0.00 62 1011.0
20210917044631 73 149 3.0 7.0 0.00 0.00 0.00 63 1011.0
20210917044130 73 160 2.0 5.0 0.00 0.00 0.00 63 1011.1
20210917043630 73 186 2.0 6.0 0.00 0.00 0.00 62 1011.1
20210917043130 73 162 2.0 3.0 0.00 0.00 0.00 62 1011.1
20210917042630 73 176 2.0 6.0 0.00 0.00 0.00 62 1011.1
20210917042130 73 182 3.0 5.0 0.00 0.00 0.00 62 1011.1
20210917041630 73 161 3.0 6.0 0.00 0.00 0.00 62 1011.0
20210917041130 73 173 3.0 7.0 0.00 0.00 0.00 62 1011.1
20210917040630 74 164 2.0 5.0 0.00 0.00 0.00 62 1011.1
20210917040130 74 165 2.0 5.0 0.00 0.00 0.00 62 1011.1
20210917035630 74 164 2.0 3.0 0.00 0.00 0.00 62 1011.1
20210917035130 74 144 2.0 6.0 0.00 0.00 0.00 62 1011.2
20210917034630 74 155 1.0 6.0 0.00 0.00 0.00 62 1011.1
20210917034130 74 171 2.0 5.0 0.00 0.00 0.00 62 1011.1
20210917033630 74 173 2.0 6.0 0.00 0.00 0.00 62 1011.1
20210917033130 74 157 2.0 3.0 0.00 0.00 0.00 62 1011.1
20210917032629 75 170 2.0 3.0 0.00 0.00 0.00 62 1011.1
20210917032130 75 171 2.0 5.0 0.00 0.00 0.00 62 1011.2
20210917031629 75 144 2.0 5.0 0.00 0.00 0.00 63 1011.2
20210917031131 75 160 1.0 6.0 0.00 0.00 0.00 63 1011.2
20210917030630 75 179 1.0 3.0 0.00 0.00 0.00 64 1011.2
20210917030130 75 151 2.0 5.0 0.00 0.00 0.00 64 1011.1
20210917025630 75 155 2.0 6.0 0.00 0.00 0.00 65 1011.1
20210917025130 75 175 1.0 3.0 0.00 0.00 0.00 66 1011.2
20210917024631 75 155 1.0 3.0 0.00 0.00 0.00 67 1011.1
20210917024130 75 168 2.0 3.0 0.00 0.00 0.00 67 1011.1
20210917023630 76 178 1.0 3.0 0.00 0.00 0.00 68 1011.1
20210917023130 76 177 2.0 3.0 0.00 0.00 0.00 68 1011.1
20210917022630 76 153 1.0 3.0 0.00 0.00 0.00 69 1011.1
20210917022130 76 149 1.0 3.0 0.00 0.00 0.00 69 1011.0
20210917021630 76 172 1.0 3.0 0.00 0.00 0.00 69 1010.9
20210917021129 76 145 1.0 5.0 0.00 0.00 0.00 69 1010.9
20210917020630 77 152 1.0 5.0 0.00 0.00 0.00 69 1010.8
20210917020130 77 143 1.0 3.0 0.00 0.00 0.00 68 1010.8
20210917015630 77 139 1.0 2.0 0.00 0.00 0.00 68 1010.9
20210917015129 77 142 1.0 2.0 0.00 0.00 0.00 67 1010.8
20210917014630 78 186 1.0 5.0 0.00 0.00 0.00 67 1010.8
20210917014130 78 132 1.0 5.0 0.00 0.00 0.00 67 1010.8
20210917013631 78 168 1.0 3.0 0.00 0.00 0.00 67 1010.8
20210917013131 78 175 1.0 3.0 0.00 0.00 0.00 66 1010.7
20210917012630 78 143 1.0 5.0 0.00 0.00 0.00 66 1010.7
20210917012130 78 172 1.0 3.0 0.00 0.00 0.00 66 1010.7
20210917011631 79 150 1.0 3.0 0.00 0.00 0.00 66 1010.6
20210917011129 79 167 1.0 2.0 0.00 0.00 0.00 65 1010.7
20210917010629 79 149 1.0 2.0 0.00 0.00 0.00 65 1010.6
20210917010130 79 162 1.0 3.0 0.00 0.00 0.00 64 1010.6
20210917005629 80 155 2.0 5.0 0.00 0.00 0.00 64 1010.6
20210917005130 80 154 2.0 3.0 0.00 0.00 0.00 64 1010.6
20210917004630 80 161 2.0 5.0 0.00 0.00 0.00 64 1010.5
20210917004130 80 166 1.0 3.0 0.00 0.00 0.00 63 1010.5
20210917003630 80 170 1.0 3.0 0.00 0.00 0.00 63 1010.4
20210917003130 81 168 2.0 5.0 0.00 0.00 0.00 62 1010.4
20210917002629 81 170 2.0 3.0 0.00 0.00 0.00 62 1010.4
20210917002130 81 167 1.0 3.0 0.00 0.00 0.00 61 1010.4
20210917001629 82 160 0.0 3.0 0.00 0.00 0.00 60 1010.3
20210917001129 82 146 1.0 3.0 0.00 0.00 0.00 59 1010.3
20210917000630 83 155 2.0 6.0 0.00 0.00 0.00 59 1010.3
20210917000130 83 170 2.0 5.0 0.00 0.00 0.00 58 1010.3
20210916235629 83 167 2.0 3.0 0.00 0.00 0.00 58 1010.3
20210916235130 83 170 3.0 7.0 0.00 0.00 0.00 57 1010.1
20210916234629 84 155 2.0 9.0 0.00 0.00 0.00 55 1010.1
20210916234129 84 154 4.0 12.0 0.00 0.00 0.00 55 1010.1
20210916233631 84 177 4.0 10.0 0.00 0.00 0.00 55 1010.0
20210916233130 85 160 6.0 10.0 0.00 0.00 0.00 54 1010.0
20210916232631 85 150 3.0 7.0 0.00 0.00 0.00 53 1009.9
20210916232130 85 187 5.0 9.0 0.00 0.00 0.00 52 1009.8
20210916231629 85 175 5.0 15.0 0.00 0.00 0.00 51 1009.8
20210916231130 86 162 3.0 8.0 0.00 0.00 0.00 52 1009.8
20210916230629 86 186 5.0 9.0 0.00 0.00 0.00 51 1009.7
20210916230129 86 187 5.0 10.0 0.00 0.00 0.00 50 1009.7
20210916225629 86 175 5.0 13.0 0.00 0.00 0.00 51 1009.7
20210916225130 87 167 5.0 10.0 0.00 0.00 0.00 51 1009.7
20210916224630 87 158 3.0 10.0 0.00 0.00 0.00 51 1009.6
20210916224129 87 173 5.0 10.0 0.00 0.00 0.00 50 1009.6
20210916223630 87 175 5.0 10.0 0.00 0.00 0.00 50 1009.6
20210916223129 87 166 5.0 8.0 0.00 0.00 0.00 50 1009.5
20210916222629 87 163 4.0 9.0 0.00 0.00 0.00 50 1009.6
20210916222130 87 168 6.0 15.0 0.00 0.00 0.00 48 1009.5
20210916221629 87 174 6.0 12.0 0.00 0.00 0.00 49 1009.5
20210916221130 87 170 6.0 18.0 0.00 0.00 0.00 48 1009.5
20210916220630 87 155 7.0 12.0 0.00 0.00 0.00 48 1009.4
20210916220130 87 170 5.0 13.0 0.00 0.00 0.00 50 1009.4
20210916215629 87 168 7.0 14.0 0.00 0.00 0.00 49 1009.5
20210916215130 87 176 7.0 12.0 0.00 0.00 0.00 49 1009.5
20210916214630 87 147 5.0 10.0 0.00 0.00 0.00 50 1009.5
20210916214129 87 171 8.0 14.0 0.00 0.00 0.00 50 1009.5
20210916213630 88 169 5.0 12.0 0.00 0.00 0.00 50 1009.5
20210916213129 87 174 5.0 9.0 0.00 0.00 0.00 51 1009.6
20210916212629 87 159 7.0 16.0 0.00 0.00 0.00 50 1009.5
20210916212130 87 171 7.0 12.0 0.00 0.00 0.00 50 1009.6
20210916211629 87 168 6.0 16.0 0.00 0.00 0.00 50 1009.6
20210916211129 88 197 7.0 12.0 0.00 0.00 0.00 50 1009.7
20210916210630 88 172 7.0 12.0 0.00 0.00 0.00 49 1009.8
20210916210131 88 194 6.0 14.0 0.00 0.00 0.00 49 1009.7
20210916205630 88 138 5.0 12.0 0.00 0.00 0.00 50 1009.8
20210916205129 88 148 4.0 10.0 0.00 0.00 0.00 50 1009.8
20210916204629 88 179 6.0 12.0 0.00 0.00 0.00 50 1009.9
20210916204130 88 173 4.0 8.0 0.00 0.00 0.00 50 1009.9
20210916203629 87 175 5.0 9.0 0.00 0.00 0.00 50 1009.9
20210916203131 87 167 4.0 15.0 0.00 0.00 0.00 50 1010.1
20210916202629 87 170 7.0 13.0 0.00 0.00 0.00 50 1010.1
20210916202129 87 140 6.0 13.0 0.00 0.00 0.00 50 1010.0
20210916201629 87 168 5.0 12.0 0.00 0.00 0.00 50 1010.2
20210916201130 87 170 5.0 9.0 0.00 0.00 0.00 50 1010.2
20210916200633 87 189 7.0 12.0 0.00 0.00 0.00 50 1010.2
20210916200133 87 160 7.0 13.0 0.00 0.00 0.00 50 1010.3
20210916195652 87 155 3.0 15.0 0.00 0.00 0.00 51 1010.4
20210916195129 87 192 6.0 13.0 0.00 0.00 0.00 51 1010.4
20210916194629 87 198 6.0 15.0 0.00 0.00 0.00 51 1010.5
20210916194130 87 188 6.0 13.0 0.00 0.00 0.00 50 1010.5
20210916193629 87 181 6.0 12.0 0.00 0.00 0.00 52 1010.5
20210916193129 86 162 6.0 12.0 0.00 0.00 0.00 52 1010.6
20210916192629 86 181 5.0 12.0 0.00 0.00 0.00 53 1010.6
20210916192129 86 188 6.0 13.0 0.00 0.00 0.00 52 1010.7
20210916191629 86 176 6.0 13.0 0.00 0.00 0.00 52 1010.7
20210916191129 86 165 5.0 15.0 0.00 0.00 0.00 52 1010.8
20210916190630 86 169 5.0 14.0 0.00 0.00 0.00 54 1010.8
20210916190129 86 199 8.0 12.0 0.00 0.00 0.00 53 1010.9
20210916185629 85 184 6.0 10.0 0.00 0.00 0.00 55 1011.0
20210916185129 85 192 6.0 12.0 0.00 0.00 0.00 54 1011.1
20210916184629 85 176 7.0 12.0 0.00 0.00 0.00 55 1011.1
20210916184129 85 150 4.0 12.0 0.00 0.00 0.00 56 1011.1
20210916183629 85 158 7.0 13.0 0.00 0.00 0.00 55 1011.3
20210916183129 85 172 5.0 12.0 0.00 0.00 0.00 56 1011.3
20210916182629 84 148 4.0 13.0 0.00 0.00 0.00 57 1011.4
20210916182130 84 166 5.0 10.0 0.00 0.00 0.00 58 1011.5
20210916181629 84 179 5.0 15.0 0.00 0.00 0.00 58 1011.5
20210916181130 84 177 7.0 16.0 0.00 0.00 0.00 58 1011.6
20210916180629 84 161 6.0 14.0 0.00 0.00 0.00 58 1011.7
20210916180129 83 170 4.0 13.0 0.00 0.00 0.00 60 1011.7
20210916175629 83 170 3.0 12.0 0.00 0.00 0.00 61 1011.7
20210916175129 83 187 6.0 18.0 0.00 0.00 0.00 60 1011.8
20210916174628 83 175 6.0 14.0 0.00 0.00 0.00 60 1011.8
20210916174130 82 185 5.0 12.0 0.00 0.00 0.00 60 1012.0
20210916173629 82 196 5.0 12.0 0.00 0.00 0.00 62 1012.1
20210916173129 82 153 6.0 12.0 0.00 0.00 0.00 61 1012.1
20210916172628 82 182 6.0 12.0 0.00 0.00 0.00 61 1012.1
20210916172129 81 148 3.0 13.0 0.00 0.00 0.00 62 1012.2
20210916171630 81 170 8.0 13.0 0.00 0.00 0.00 61 1012.2
20210916171129 81 175 5.0 12.0 0.00 0.00 0.00 62 1012.2
20210916170629 81 193 5.0 10.0 0.00 0.00 0.00 63 1012.3
20210916170129 80 173 6.0 15.0 0.00 0.00 0.00 63 1012.4
20210916165629 80 194 6.0 12.0 0.00 0.00 0.00 63 1012.3
20210916165129 79 188 5.0 8.0 0.00 0.00 0.00 64 1012.3
20210916164629 79 165 6.0 13.0 0.00 0.00 0.00 64 1012.4
20210916164129 79 197 5.0 12.0 0.00 0.00 0.00 65 1012.5
20210916163628 78 165 4.0 13.0 0.00 0.00 0.00 66 1012.5
20210916163129 78 168 5.0 12.0 0.00 0.00 0.00 66 1012.6
20210916162629 77 180 6.0 18.0 0.00 0.00 0.00 66 1012.7
20210916162129 77 152 5.0 10.0 0.00 0.00 0.00 67 1012.7